createdAt,value
2023-01-12T00:00:25.143Z,7.6
2023-01-12T00:01:32.215Z,6.8
2023-01-12T00:02:42.520Z,8.3
2023-01-12T00:03:49.519Z,8.4
2023-01-12T00:04:56.588Z,6.9
2023-01-12T00:06:03.759Z,7.6
2023-01-12T00:07:10.849Z,8.2
2023-01-12T00:08:17.988Z,7.7
2023-01-12T00:09:25.192Z,7.4
2023-01-12T00:10:32.233Z,8
2023-01-12T00:11:39.390Z,6.6
2023-01-12T00:12:46.536Z,7.6
2023-01-12T00:13:53.649Z,7.4
2023-01-12T00:15:00.343Z,8.3
2023-01-12T00:16:07.510Z,6.2
2023-01-12T00:17:19.615Z,7.4
2023-01-12T00:18:26.707Z,8.2
2023-01-12T00:19:33.801Z,8
2023-01-12T00:20:40.937Z,7.3
2023-01-12T00:21:50.637Z,7.1
2023-01-12T00:23:00.278Z,6.5
2023-01-12T00:24:07.477Z,6.8
2023-01-12T00:25:14.504Z,7.1
2023-01-12T00:26:21.693Z,6.9
2023-01-12T00:27:28.319Z,7
2023-01-12T00:28:35.398Z,6.9
2023-01-12T00:29:42.527Z,6.6
2023-01-12T00:30:49.716Z,6.7
2023-01-12T00:31:56.329Z,5.6
2023-01-12T00:33:03.472Z,6
2023-01-12T00:34:10.556Z,6.4
2023-01-12T00:35:17.681Z,6
2023-01-12T00:36:24.770Z,6.1
2023-01-12T00:37:31.412Z,5.7
2023-01-12T00:38:38.607Z,6.2
2023-01-12T00:40:00.691Z,6.2
2023-01-12T00:40:52.855Z,6.7
2023-01-12T00:41:59.940Z,6.5
2023-01-12T00:43:12.194Z,6
2023-01-12T00:44:24.368Z,5.8
2023-01-12T00:45:36.677Z,6.2
2023-01-12T00:46:43.714Z,6.2
2023-01-12T00:47:50.853Z,6.5
2023-01-12T00:48:57.490Z,6
2023-01-12T00:50:04.160Z,5.3
2023-01-12T00:51:11.344Z,7.5
2023-01-12T00:52:29.738Z,6.1
2023-01-12T00:53:25.452Z,7.1
2023-01-12T00:54:32.155Z,8.5
2023-01-12T00:55:39.241Z,14.1
2023-01-12T00:56:46.332Z,12
2023-01-12T00:57:53.714Z,9.2
2023-01-12T00:59:00.651Z,7.2
2023-01-12T01:00:07.735Z,7.4
2023-01-12T01:01:14.964Z,7.4
2023-01-12T01:02:21.975Z,6.8
2023-01-12T01:03:29.073Z,7.7
2023-01-12T01:04:36.305Z,7.1
2023-01-12T01:05:43.339Z,7
2023-01-12T01:06:50.454Z,5.9
2023-01-12T01:07:57.580Z,7.8
2023-01-12T01:09:04.700Z,6.8
2023-01-12T01:10:12.066Z,7.6
2023-01-12T01:11:18.946Z,6.7
2023-01-12T01:12:26.013Z,7.8
2023-01-12T01:13:33.253Z,8
2023-01-12T01:14:40.251Z,8.3
2023-01-12T01:15:47.507Z,7.9
2023-01-12T01:16:54.165Z,8.3
2023-01-12T01:18:01.244Z,7.4
2023-01-12T01:19:08.313Z,7.3
2023-01-12T01:20:15.432Z,7.2
2023-01-12T01:21:22.513Z,8.4
2023-01-12T01:22:29.195Z,8.1
2023-01-12T01:23:36.585Z,8.6
2023-01-12T01:24:43.402Z,7.8
2023-01-12T01:25:50.541Z,7.1
2023-01-12T01:26:57.313Z,7.2
2023-01-12T01:28:04.415Z,6.4
2023-01-12T01:29:11.591Z,7.2
2023-01-12T01:30:18.583Z,6.5
2023-01-12T01:31:25.834Z,7.2
2023-01-12T01:32:32.914Z,7.2
2023-01-12T01:33:39.991Z,6.3
2023-01-12T01:34:47.170Z,7.5
2023-01-12T01:35:53.888Z,6.7
2023-01-12T01:37:00.957Z,6.3
2023-01-12T01:38:08.021Z,6.7
2023-01-12T01:39:15.200Z,6.3
2023-01-12T01:40:22.252Z,5.9
2023-01-12T01:41:28.867Z,6.5
2023-01-12T01:42:36.066Z,6.4
2023-01-12T01:43:43.164Z,6.1
2023-01-12T01:44:53.299Z,6.5
2023-01-12T01:46:00.520Z,6.6
2023-01-12T01:47:07.601Z,6.8
2023-01-12T01:48:14.704Z,5.6
2023-01-12T01:49:21.841Z,6.5
2023-01-12T01:50:34.078Z,6.1
2023-01-12T01:51:40.830Z,6.5
2023-01-12T01:52:47.852Z,6
2023-01-12T01:54:01.196Z,6.3
2023-01-12T01:55:08.329Z,6.6
2023-01-12T01:56:21.444Z,6.5
2023-01-12T01:57:28.561Z,5.8
2023-01-12T01:58:38.273Z,5.6
2023-01-12T01:59:48.020Z,5.8
2023-01-12T02:00:55.033Z,5.6
2023-01-12T02:02:02.351Z,5.5
2023-01-12T02:03:08.920Z,6.4
2023-01-12T02:04:15.956Z,5.9
2023-01-12T02:05:23.100Z,5.5
2023-01-12T02:06:30.332Z,5.7
2023-01-12T02:07:37.295Z,5.7
2023-01-12T02:08:43.928Z,5.5
2023-01-12T02:09:50.688Z,5.3
2023-01-12T02:10:57.664Z,5.6
2023-01-12T02:12:04.875Z,5.4
2023-01-12T02:13:17.143Z,5.7
2023-01-12T02:14:29.221Z,5
2023-01-12T02:15:41.005Z,6
2023-01-12T02:16:55.740Z,5.6
2023-01-12T02:18:08.106Z,5.3
2023-01-12T02:19:20.142Z,5.5
2023-01-12T02:20:27.284Z,6.7
2023-01-12T02:21:44.640Z,6.1
2023-01-12T02:22:59.409Z,7
2023-01-12T02:24:14.201Z,6.6
2023-01-12T02:25:31.556Z,5.9
2023-01-12T02:26:41.008Z,6.2
2023-01-12T02:27:55.759Z,5.8
2023-01-12T02:29:08.052Z,5.8
2023-01-12T02:30:20.190Z,6.3
2023-01-12T02:31:32.545Z,5.8
2023-01-12T02:32:49.662Z,6.6
2023-01-12T02:34:02.096Z,7
2023-01-12T02:35:19.163Z,6.2
2023-01-12T02:36:31.412Z,6.4
2023-01-12T02:37:48.440Z,5.9
2023-01-12T02:39:03.471Z,6.1
2023-01-12T02:40:18.225Z,6.9
2023-01-12T02:41:33.074Z,6.3
2023-01-12T02:42:50.332Z,6.2
2023-01-12T02:44:02.628Z,7.4
2023-01-12T02:45:09.643Z,7.3
2023-01-12T02:46:21.911Z,7.3
2023-01-12T02:47:28.974Z,7.2
2023-01-12T02:48:41.589Z,7
2023-01-12T02:49:59.163Z,7.9
2023-01-12T02:51:06.109Z,7.7
2023-01-12T02:52:18.332Z,7.2
2023-01-12T02:53:25.407Z,7.4
2023-01-12T02:54:37.681Z,7.1
2023-01-12T02:55:44.262Z,6.3
2023-01-12T02:56:50.997Z,6.1
2023-01-12T02:57:58.079Z,6.6
2023-01-12T02:59:05.187Z,6.8
2023-01-12T03:00:12.308Z,5.8
2023-01-12T03:01:20.063Z,6
2023-01-12T03:02:26.924Z,6.9
2023-01-12T03:03:33.556Z,5.6
2023-01-12T03:04:40.812Z,5.9
2023-01-12T03:05:47.895Z,6.1
2023-01-12T03:06:54.511Z,6.2
2023-01-12T03:08:01.267Z,6.3
2023-01-12T03:09:08.381Z,6.7
2023-01-12T03:10:15.480Z,6
2023-01-12T03:11:32.633Z,6.3
2023-01-12T03:12:39.730Z,6.1
2023-01-12T03:13:46.787Z,7.4
2023-01-12T03:14:53.575Z,7.1
2023-01-12T03:16:00.675Z,6.3
2023-01-12T03:17:07.630Z,6.9
2023-01-12T03:18:14.875Z,6.7
2023-01-12T03:19:21.974Z,6.4
2023-01-12T03:20:28.916Z,6.1
2023-01-12T03:21:38.584Z,7
2023-01-12T03:22:45.445Z,6
2023-01-12T03:23:52.539Z,6.6
2023-01-12T03:25:02.351Z,6.9
2023-01-12T03:26:09.361Z,7
2023-01-12T03:27:16.553Z,6.5
2023-01-12T03:28:23.579Z,6.2
2023-01-12T03:29:30.877Z,7.2
2023-01-12T03:30:37.860Z,6.2
2023-01-12T03:31:45.004Z,6.6
2023-01-12T03:32:52.147Z,6.3
2023-01-12T03:33:59.231Z,5.9
2023-01-12T03:35:06.303Z,7
2023-01-12T03:36:13.276Z,7.4
2023-01-12T03:37:25.162Z,7
2023-01-12T03:38:34.843Z,6.9
2023-01-12T03:39:42.255Z,6.9
2023-01-12T03:40:57.223Z,6.1
2023-01-12T03:42:06.916Z,6
2023-01-12T03:43:16.589Z,6.1
2023-01-12T03:44:33.847Z,5.7
2023-01-12T03:45:48.551Z,6.3
2023-01-12T03:46:58.299Z,7
2023-01-12T03:48:05.380Z,6.4
2023-01-12T03:49:17.639Z,5.6
2023-01-12T03:50:29.772Z,6.4
2023-01-12T03:51:42.047Z,6.8
2023-01-12T03:52:49.186Z,6.1
2023-01-12T03:53:56.369Z,5.7
2023-01-12T03:55:03.433Z,6.5
2023-01-12T03:56:10.723Z,6.5
2023-01-12T03:57:17.728Z,5.7
2023-01-12T03:58:24.794Z,5.4
2023-01-12T03:59:31.874Z,5.8
2023-01-12T04:00:38.658Z,6.5
2023-01-12T04:01:45.867Z,6.3
2023-01-12T04:02:52.852Z,6.2
2023-01-12T04:04:05.169Z,6.7
2023-01-12T04:05:12.296Z,6.1
2023-01-12T04:06:19.231Z,6.1
2023-01-12T04:07:26.355Z,6.6
2023-01-12T04:08:33.018Z,6.2
2023-01-12T04:09:40.178Z,5.6
2023-01-12T04:10:47.467Z,6
2023-01-12T04:11:54.343Z,6.2
2023-01-12T04:13:06.741Z,5.6
2023-01-12T04:14:13.756Z,6.2
2023-01-12T04:15:20.892Z,5.6
2023-01-12T04:16:28.046Z,6
2023-01-12T04:17:35.063Z,6.6
2023-01-12T04:18:41.882Z,5.7
2023-01-12T04:19:48.925Z,6.3
2023-01-12T04:20:55.961Z,6.6
2023-01-12T04:22:03.078Z,6.3
2023-01-12T04:23:12.828Z,6.5
2023-01-12T04:24:19.924Z,7.5
2023-01-12T04:25:27.043Z,7.1
2023-01-12T04:26:34.275Z,7.2
2023-01-12T04:27:41.303Z,7.6
2023-01-12T04:28:53.688Z,7.8
2023-01-12T04:30:00.527Z,7.6
2023-01-12T04:31:07.685Z,7.7
2023-01-12T04:32:14.812Z,7.8
2023-01-12T04:33:21.920Z,7.6
2023-01-12T04:34:29.027Z,7.7
2023-01-12T04:35:36.323Z,7.2
2023-01-12T04:36:43.297Z,7.1
2023-01-12T04:37:50.346Z,7.2
2023-01-12T04:38:57.049Z,6.7
2023-01-12T04:40:04.158Z,7.3
2023-01-12T04:41:12.791Z,6.7
2023-01-12T04:42:19.927Z,7.2
2023-01-12T04:43:32.058Z,7.2
2023-01-12T04:44:38.828Z,6.8
2023-01-12T04:45:45.906Z,7
2023-01-12T04:46:52.993Z,6.6
2023-01-12T04:48:00.113Z,6.6
2023-01-12T04:49:09.785Z,6.6
2023-01-12T04:50:16.476Z,7
2023-01-12T04:51:23.750Z,8
2023-01-12T04:52:30.719Z,7.3
2023-01-12T04:53:37.789Z,7.4
2023-01-12T04:54:44.446Z,7.1
2023-01-12T04:55:51.558Z,6.8
2023-01-12T04:56:58.719Z,7
2023-01-12T04:58:05.899Z,6.8
2023-01-12T04:59:12.934Z,7.2
2023-01-12T05:00:19.996Z,7.2
2023-01-12T05:01:27.195Z,7.2
2023-01-12T05:02:33.764Z,7.3
2023-01-12T05:03:40.961Z,7.9
2023-01-12T05:04:48.054Z,7.6
2023-01-12T05:05:55.190Z,7.9
2023-01-12T05:07:02.302Z,8.5
2023-01-12T05:08:09.507Z,7.9
2023-01-12T05:09:21.605Z,7.4
2023-01-12T05:10:33.834Z,8
2023-01-12T05:11:40.547Z,7.7
2023-01-12T05:12:47.665Z,7.8
2023-01-12T05:13:54.790Z,7.1
2023-01-12T05:15:01.879Z,8
2023-01-12T05:16:09.713Z,7.7
2023-01-12T05:17:19.145Z,8.2
2023-01-12T05:18:26.295Z,7.1
2023-01-12T05:19:33.434Z,7.2
2023-01-12T05:20:40.530Z,8.2
2023-01-12T05:21:47.162Z,7.3
2023-01-12T05:22:53.900Z,7.7
2023-01-12T05:24:00.956Z,8.3
2023-01-12T05:25:08.060Z,7.5
2023-01-12T05:26:15.145Z,7.2
2023-01-12T05:27:22.306Z,7.4
2023-01-12T05:28:28.865Z,6.9
2023-01-12T05:29:35.970Z,8.1
2023-01-12T05:30:43.119Z,8.2
2023-01-12T05:31:50.273Z,7.9
2023-01-12T05:32:56.935Z,7.9
2023-01-12T05:34:04.162Z,8.5
2023-01-12T05:35:11.284Z,8.5
2023-01-12T05:36:18.389Z,7.5
2023-01-12T05:37:25.437Z,9.4
2023-01-12T05:38:32.601Z,7.9
2023-01-12T05:39:39.964Z,8.4
2023-01-12T05:40:46.976Z,8.6
2023-01-12T05:41:54.089Z,8.5
2023-01-12T05:43:06.225Z,8.9
2023-01-12T05:44:18.463Z,9.6
2023-01-12T05:45:25.550Z,9
2023-01-12T05:46:32.660Z,8.8
2023-01-12T05:47:39.714Z,10
2023-01-12T05:48:46.461Z,10
2023-01-12T05:49:53.578Z,9.7
2023-01-12T05:51:00.590Z,9
2023-01-12T05:52:07.837Z,10
2023-01-12T05:53:14.978Z,9.5
2023-01-12T05:54:22.016Z,8.5
2023-01-12T05:55:29.111Z,8.3
2023-01-12T05:56:36.242Z,9.2
2023-01-12T05:57:43.459Z,8.8
2023-01-12T05:58:50.647Z,8.9
2023-01-12T06:00:00.756Z,9.2
2023-01-12T06:01:07.988Z,8.7
2023-01-12T06:02:14.885Z,9
2023-01-12T06:03:22.022Z,8.8
2023-01-12T06:04:29.210Z,10.5
2023-01-12T06:05:36.266Z,11.4
2023-01-12T06:06:43.004Z,11.7
2023-01-12T06:07:50.091Z,10.9
2023-01-12T06:08:57.197Z,10.7
2023-01-12T06:10:04.311Z,10.7
2023-01-12T06:11:11.437Z,12
2023-01-12T06:12:23.566Z,11.4
2023-01-12T06:13:35.311Z,11.5
2023-01-12T06:14:47.698Z,10.2
2023-01-12T06:15:54.776Z,11
2023-01-12T06:17:07.030Z,11.2
2023-01-12T06:18:14.106Z,12.2
2023-01-12T06:19:21.239Z,10.4
2023-01-12T06:20:28.311Z,11.7
2023-01-12T06:21:35.511Z,10.7
2023-01-12T06:22:42.212Z,11.4
2023-01-12T06:23:50.419Z,10.3
2023-01-12T06:25:03.443Z,10.6
2023-01-12T06:26:16.579Z,10.3
2023-01-12T06:27:23.320Z,11
2023-01-12T06:28:30.598Z,11
2023-01-12T06:29:40.240Z,9.3
2023-01-12T06:30:47.437Z,10.7
2023-01-12T06:31:59.678Z,11.8
2023-01-12T06:33:06.714Z,10.6
2023-01-12T06:34:13.710Z,12.3
2023-01-12T06:35:20.750Z,12.5
2023-01-12T06:36:27.920Z,12.4
2023-01-12T06:37:34.612Z,12.8
2023-01-12T06:38:41.745Z,12
2023-01-12T06:39:48.798Z,11.9
2023-01-12T06:40:55.915Z,13
2023-01-12T06:42:05.775Z,12
2023-01-12T06:43:17.934Z,12.5
2023-01-12T06:44:24.882Z,12.5
2023-01-12T06:45:32.149Z,12.2
2023-01-12T06:46:39.329Z,12.3
2023-01-12T06:47:45.907Z,11.8
2023-01-12T06:48:53.049Z,13.4
2023-01-12T06:50:00.217Z,12.2
2023-01-12T06:51:07.299Z,13.5
2023-01-12T06:52:13.922Z,12.2
2023-01-12T06:53:21.186Z,12.7
2023-01-12T06:54:28.058Z,12.2
2023-01-12T06:55:35.216Z,11.9
2023-01-12T06:56:42.279Z,11.1
2023-01-12T06:57:48.998Z,11.1
2023-01-12T06:58:56.123Z,10.5
2023-01-12T07:00:03.386Z,12.5
2023-01-12T07:01:10.969Z,11.9
2023-01-12T07:02:18.227Z,11.9
2023-01-12T07:03:25.055Z,12
2023-01-12T07:04:31.692Z,13.2
2023-01-12T07:05:38.911Z,11.3
2023-01-12T07:06:45.954Z,12.1
2023-01-12T07:07:52.600Z,11.4
2023-01-12T07:09:02.195Z,10.7
2023-01-12T07:10:09.371Z,11.8
2023-01-12T07:11:16.490Z,10.8
2023-01-12T07:12:23.579Z,11.4
2023-01-12T07:13:30.751Z,10.2
2023-01-12T07:14:37.916Z,9.9
2023-01-12T07:15:44.967Z,10.2
2023-01-12T07:16:51.571Z,11.1
2023-01-12T07:17:58.738Z,10.3
2023-01-12T07:19:05.941Z,10.3
2023-01-12T07:20:13.071Z,9.8
2023-01-12T07:21:20.049Z,11.2
2023-01-12T07:22:26.686Z,12.1
2023-01-12T07:23:33.821Z,11
2023-01-12T07:24:40.613Z,11.6
2023-01-12T07:25:47.735Z,13
2023-01-12T07:26:54.771Z,11.6
2023-01-12T07:28:01.459Z,10.6
2023-01-12T07:29:08.554Z,10.9
2023-01-12T07:30:15.291Z,11.3
2023-01-12T07:31:22.246Z,10.5
2023-01-12T07:32:29.305Z,9.9
2023-01-12T07:33:36.490Z,9.7
2023-01-12T07:34:43.107Z,10.6
2023-01-12T07:35:50.208Z,10.9
2023-01-12T07:36:57.505Z,11.2
2023-01-12T07:38:04.198Z,10.8
2023-01-12T07:39:11.223Z,11
2023-01-12T07:40:18.426Z,9.6
2023-01-12T07:41:25.375Z,11.7
2023-01-12T07:42:37.666Z,10.8
2023-01-12T07:43:44.852Z,11.8
2023-01-12T07:44:51.932Z,10.7
2023-01-12T07:45:59.154Z,10.9
2023-01-12T07:47:06.283Z,11.8
2023-01-12T07:48:13.371Z,12.6
2023-01-12T07:49:20.447Z,10.4
2023-01-12T07:50:27.447Z,12.6
2023-01-12T07:51:34.201Z,12.7
2023-01-12T07:52:41.512Z,12
2023-01-12T07:53:48.496Z,11.1
2023-01-12T07:54:55.620Z,10.3
2023-01-12T07:56:02.781Z,11.7
2023-01-12T07:57:09.885Z,11.5
2023-01-12T07:58:16.682Z,10.4
2023-01-12T07:59:23.660Z,10.8
2023-01-12T08:00:30.654Z,12.3
2023-01-12T08:01:38.007Z,11.7
2023-01-12T08:02:45.003Z,11.5
2023-01-12T08:03:52.077Z,10.5
2023-01-12T08:04:58.861Z,10.5
2023-01-12T08:06:05.896Z,10.6
2023-01-12T08:07:12.983Z,9.9
2023-01-12T08:08:19.689Z,11
2023-01-12T08:09:26.668Z,9.4
2023-01-12T08:10:33.431Z,11.3
2023-01-12T08:11:40.499Z,9.2
2023-01-12T08:12:47.520Z,10.4
2023-01-12T08:13:54.675Z,9.1
2023-01-12T08:15:01.407Z,10.9
2023-01-12T08:16:08.491Z,10.2
2023-01-12T08:17:15.341Z,8.5
2023-01-12T08:18:22.141Z,9.6
2023-01-12T08:19:29.315Z,10
2023-01-12T08:20:36.045Z,9
2023-01-12T08:21:43.245Z,9.6
2023-01-12T08:22:50.227Z,10.2
2023-01-12T08:23:56.872Z,8.9
2023-01-12T08:25:04.126Z,9.5
2023-01-12T08:26:14.202Z,9.4
2023-01-12T08:27:23.771Z,9.8
2023-01-12T08:28:30.995Z,9.5
2023-01-12T08:29:37.666Z,9.3
2023-01-12T08:30:47.295Z,9.1
2023-01-12T08:31:54.498Z,8.7
2023-01-12T08:33:04.607Z,8.2
2023-01-12T08:34:11.875Z,9.2
2023-01-12T08:35:18.993Z,8.4
2023-01-12T08:36:25.956Z,7.8
2023-01-12T08:37:33.167Z,8.6
2023-01-12T08:38:40.296Z,8.4
2023-01-12T08:39:47.439Z,8.5
2023-01-12T08:40:54.727Z,8.9
2023-01-12T08:42:06.856Z,8.1
2023-01-12T08:43:13.717Z,8.7
2023-01-12T08:44:23.706Z,8.2
2023-01-12T08:45:30.735Z,8.5
2023-01-12T08:46:37.866Z,7.8
2023-01-12T08:47:51.040Z,7.9
2023-01-12T08:48:57.827Z,7.8
2023-01-12T08:50:04.841Z,9.6
2023-01-12T08:51:11.957Z,10.7
2023-01-12T08:52:19.114Z,8.9
2023-01-12T08:53:26.361Z,8.8
2023-01-12T08:54:33.486Z,7.7
2023-01-12T08:55:40.523Z,8.1
2023-01-12T08:56:47.745Z,8.8
2023-01-12T08:57:54.748Z,9
2023-01-12T08:59:01.842Z,8.9
2023-01-12T09:00:09.077Z,7.7
2023-01-12T09:01:16.439Z,8.9
2023-01-12T09:02:23.426Z,8.6
2023-01-12T09:03:30.443Z,9.1
2023-01-12T09:04:37.503Z,9.1
2023-01-12T09:05:44.268Z,8.9
2023-01-12T09:06:51.456Z,8.9
2023-01-12T09:07:58.545Z,8.6
2023-01-12T09:09:05.512Z,8.6
2023-01-12T09:10:12.331Z,7.7
2023-01-12T09:11:19.580Z,8.8
2023-01-12T09:12:26.330Z,8.6
2023-01-12T09:13:33.501Z,8.6
2023-01-12T09:14:40.718Z,8.5
2023-01-12T09:15:56.645Z,7.9
2023-01-12T09:16:55.005Z,9.1
2023-01-12T09:18:02.214Z,8.9
2023-01-12T09:19:09.418Z,9.2
2023-01-12T09:20:17.852Z,8.5
2023-01-12T09:21:24.449Z,7.9
2023-01-12T09:22:31.545Z,8.4
2023-01-12T09:23:38.783Z,8.2
2023-01-12T09:24:45.832Z,8.2
2023-01-12T09:25:52.600Z,7.9
2023-01-12T09:26:59.729Z,8.2
2023-01-12T09:28:06.729Z,8.5
2023-01-12T09:29:13.540Z,7
2023-01-12T09:30:20.567Z,8.4
2023-01-12T09:31:27.761Z,8.5
2023-01-12T09:32:37.727Z,7.8
2023-01-12T09:33:41.927Z,8.1
2023-01-12T09:34:48.665Z,8.9
2023-01-12T09:35:55.763Z,8
2023-01-12T09:37:08.491Z,8
2023-01-12T09:38:15.506Z,9.2
2023-01-12T09:39:27.585Z,8.7
2023-01-12T09:40:29.879Z,7.9
2023-01-12T09:41:37.063Z,7.8
2023-01-12T09:42:49.139Z,7.2
2023-01-12T09:44:01.450Z,7.3
2023-01-12T09:45:18.881Z,7.7
2023-01-12T09:46:30.956Z,7.2
2023-01-12T09:47:43.136Z,7
2023-01-12T09:48:58.060Z,7.4
2023-01-12T09:50:08.991Z,6.4
2023-01-12T09:51:12.224Z,7.2
2023-01-12T09:52:24.360Z,7.5
2023-01-12T09:53:31.579Z,6.9
2023-01-12T09:54:38.351Z,8.3
2023-01-12T09:55:45.388Z,7.5
2023-01-12T09:56:55.148Z,7.5
2023-01-12T09:58:05.243Z,7.5
2023-01-12T09:59:20.013Z,7.6
2023-01-12T10:00:32.389Z,7.5
2023-01-12T10:01:39.251Z,7.2
2023-01-12T10:02:46.092Z,7.5
2023-01-12T10:03:58.149Z,6.9
2023-01-12T10:05:05.462Z,6.6
2023-01-12T10:06:12.527Z,7.7
2023-01-12T10:07:19.655Z,7.1
2023-01-12T10:08:26.584Z,6.8
2023-01-12T10:09:38.859Z,6.7
2023-01-12T10:10:46.089Z,5.9
2023-01-12T10:12:00.893Z,5.9
2023-01-12T10:13:08.040Z,7.4
2023-01-12T10:14:15.026Z,6.5
2023-01-12T10:15:32.323Z,6.3
2023-01-12T10:16:44.633Z,5.7
2023-01-12T10:17:57.911Z,6
2023-01-12T10:19:08.963Z,5.8
2023-01-12T10:20:14.163Z,6.9
2023-01-12T10:21:26.257Z,6.8
2023-01-12T10:22:33.478Z,6.6
2023-01-12T10:23:48.730Z,6.3
2023-01-12T10:24:55.917Z,6.4
2023-01-12T10:26:02.946Z,6.5
2023-01-12T10:27:20.494Z,6
2023-01-12T10:28:27.388Z,6
2023-01-12T10:29:34.467Z,6
2023-01-12T10:30:41.196Z,5.5
2023-01-12T10:31:48.280Z,5.9
2023-01-12T10:32:55.398Z,5.9
2023-01-12T10:34:07.628Z,6
2023-01-12T10:35:14.497Z,5.6
2023-01-12T10:36:21.802Z,6.9
2023-01-12T10:37:28.908Z,6.9
2023-01-12T10:38:36.076Z,7
2023-01-12T10:39:43.197Z,5.9
2023-01-12T10:40:53.988Z,5.1
2023-01-12T10:42:11.319Z,6.3
2023-01-12T10:43:21.414Z,6.6
2023-01-12T10:44:28.531Z,6.5
2023-01-12T10:45:35.555Z,6.7
2023-01-12T10:46:42.814Z,5.5
2023-01-12T10:47:49.867Z,5.4
2023-01-12T10:48:56.619Z,5.4
2023-01-12T10:50:11.726Z,6
2023-01-12T10:51:23.886Z,6.3
2023-01-12T10:52:30.974Z,5.8
2023-01-12T10:53:37.623Z,5.7
2023-01-12T10:54:47.357Z,6.3
2023-01-12T10:55:54.495Z,6.1
2023-01-12T10:57:01.781Z,6.3
2023-01-12T10:58:13.867Z,5.6
2023-01-12T10:59:23.415Z,6
2023-01-12T11:00:33.160Z,5.7
2023-01-12T11:01:40.470Z,5.6
2023-01-12T11:02:52.562Z,5.8
2023-01-12T11:03:59.756Z,5.7
2023-01-12T11:05:06.838Z,5.2
2023-01-12T11:06:24.002Z,5
2023-01-12T11:07:31.073Z,5.6
2023-01-12T11:08:38.311Z,5.7
2023-01-12T11:09:45.362Z,7.8
2023-01-12T11:10:52.563Z,14.5
2023-01-12T11:11:59.674Z,10.2
2023-01-12T11:13:17.171Z,13
2023-01-12T11:14:34.130Z,11.9
2023-01-12T11:15:41.383Z,7.5
2023-01-12T11:16:48.535Z,6.2
2023-01-12T11:17:55.678Z,5.6
2023-01-12T11:19:12.926Z,6
2023-01-12T11:20:20.049Z,6.4
2023-01-12T11:21:30.281Z,6.5
2023-01-12T11:22:37.243Z,6.1
2023-01-12T11:23:44.350Z,4.9
2023-01-12T11:24:56.586Z,5
2023-01-12T11:26:14.011Z,5.5
2023-01-12T11:27:21.010Z,5
2023-01-12T11:28:33.130Z,4.9
2023-01-12T11:29:42.838Z,5.6
2023-01-12T11:30:55.084Z,4.9
2023-01-12T11:32:07.162Z,4.8
2023-01-12T11:33:19.418Z,4.9
2023-01-12T11:34:36.814Z,4.7
2023-01-12T11:35:43.696Z,5
2023-01-12T11:37:00.974Z,4.2
2023-01-12T11:38:08.114Z,3.9
2023-01-12T11:39:14.822Z,4.8
2023-01-12T11:40:27.479Z,4.2
2023-01-12T11:41:37.218Z,4.3
2023-01-12T11:42:44.283Z,3.6
2023-01-12T11:43:56.506Z,3.8
2023-01-12T11:45:08.736Z,4
2023-01-12T11:46:26.041Z,4
2023-01-12T11:47:41.953Z,4.1
2023-01-12T11:48:56.524Z,3.8
2023-01-12T11:50:13.823Z,3.7
2023-01-12T11:51:31.147Z,4
2023-01-12T11:52:38.211Z,3.9
2023-01-12T11:53:45.315Z,4.4
2023-01-12T11:54:52.049Z,4
2023-01-12T11:55:59.227Z,3.8
2023-01-12T11:57:14.526Z,4.8
2023-01-12T11:58:26.552Z,4.7
2023-01-12T11:59:40.856Z,4.9
2023-01-12T12:00:53.632Z,4.1
2023-01-12T12:02:05.826Z,3.9
2023-01-12T12:03:23.039Z,4.1
2023-01-12T12:04:40.317Z,4.9
2023-01-12T12:05:52.639Z,4.9
2023-01-12T12:06:59.696Z,5.2
2023-01-12T12:08:09.956Z,6.4
2023-01-12T12:09:19.612Z,4.8
2023-01-12T12:10:29.201Z,4.4
2023-01-12T12:11:41.679Z,4.5
2023-01-12T12:12:46.048Z,5.4
2023-01-12T12:13:58.354Z,4.4
2023-01-12T12:15:15.659Z,4.1
2023-01-12T12:16:32.843Z,3.6
2023-01-12T12:17:45.120Z,4.6
2023-01-12T12:18:51.765Z,3.9
2023-01-12T12:20:06.497Z,3.4
2023-01-12T12:21:21.811Z,3.4
2023-01-12T12:22:33.994Z,3.4
2023-01-12T12:23:51.328Z,4
2023-01-12T12:25:08.532Z,3.4
2023-01-12T12:26:20.298Z,3.6
2023-01-12T12:27:27.396Z,3.7
2023-01-12T12:28:39.759Z,3.4
2023-01-12T12:29:51.797Z,3.8
2023-01-12T12:31:09.175Z,3.5
2023-01-12T12:32:26.394Z,3.4
2023-01-12T12:33:41.144Z,3.8
2023-01-12T12:34:58.521Z,3.3
2023-01-12T12:36:13.761Z,3.4
2023-01-12T12:37:25.877Z,3.5
2023-01-12T12:38:40.602Z,3.4
2023-01-12T12:39:55.377Z,3.3
2023-01-12T12:41:07.574Z,3.4
2023-01-12T12:42:20.133Z,3.5
2023-01-12T12:43:37.106Z,3
2023-01-12T12:44:49.241Z,3.3
2023-01-12T12:46:09.188Z,2.9
2023-01-12T12:47:24.465Z,3.3
2023-01-12T12:48:36.630Z,3.1
2023-01-12T12:49:51.345Z,2.9
2023-01-12T12:50:58.507Z,3.3
2023-01-12T12:52:08.690Z,3.3
2023-01-12T12:53:15.838Z,3.1
2023-01-12T12:54:28.032Z,3
2023-01-12T12:55:35.096Z,3.3
2023-01-12T12:56:41.781Z,3.5
2023-01-12T12:57:48.841Z,3.2
2023-01-12T12:59:01.228Z,3.3
2023-01-12T13:00:08.333Z,3.6
2023-01-12T13:01:15.444Z,3.7
2023-01-12T13:02:25.743Z,3.6
2023-01-12T13:03:42.862Z,3.6
2023-01-12T13:04:58.083Z,3.8
2023-01-12T13:06:05.283Z,3.5
2023-01-12T13:07:20.631Z,3.7
2023-01-12T13:08:27.679Z,3.6
2023-01-12T13:09:34.783Z,3.8
2023-01-12T13:10:41.904Z,3.8
2023-01-12T13:11:54.268Z,3.4
2023-01-12T13:13:01.262Z,3.3
2023-01-12T13:14:08.409Z,4.3
2023-01-12T13:15:25.610Z,3.2
2023-01-12T13:16:35.346Z,3.9
2023-01-12T13:17:42.444Z,4.2
2023-01-12T13:18:49.184Z,3.7
2023-01-12T13:20:00.753Z,3.7
2023-01-12T13:21:03.413Z,3.6
2023-01-12T13:22:10.566Z,3.7
2023-01-12T13:23:27.808Z,3.5
2023-01-12T13:24:42.507Z,3.6
2023-01-12T13:25:49.673Z,3.8
2023-01-12T13:26:56.794Z,3.8
2023-01-12T13:28:03.931Z,3.8
2023-01-12T13:29:11.167Z,3.3
2023-01-12T13:30:26.397Z,3.5
2023-01-12T13:31:33.410Z,3.1
2023-01-12T13:32:40.044Z,3.2
2023-01-12T13:33:47.242Z,3.8
2023-01-12T13:34:54.383Z,3.2
2023-01-12T13:36:01.504Z,3
2023-01-12T13:37:08.592Z,4.3
2023-01-12T13:38:25.957Z,4.3
2023-01-12T13:39:38.152Z,3.9
2023-01-12T13:40:55.822Z,3.9
2023-01-12T13:41:52.338Z,3.9
2023-01-12T13:43:04.595Z,3.8
2023-01-12T13:44:22.826Z,3.7
2023-01-12T13:45:32.532Z,3.9
2023-01-12T13:46:39.752Z,4.3
2023-01-12T13:47:49.315Z,3.4
2023-01-12T13:48:56.576Z,3.6
2023-01-12T13:50:03.693Z,3.6
2023-01-12T13:51:10.953Z,3.7
2023-01-12T13:52:21.369Z,4.1
2023-01-12T13:53:31.112Z,3.8
2023-01-12T13:54:38.333Z,3.7
2023-01-12T13:55:48.370Z,3.3
2023-01-12T13:57:00.764Z,3.6
2023-01-12T13:58:07.918Z,3.1
2023-01-12T13:59:20.126Z,3.4
2023-01-12T14:00:27.174Z,2.9
2023-01-12T14:01:34.564Z,3.1
2023-01-12T14:02:41.506Z,3.6
2023-01-12T14:03:48.467Z,3.7
2023-01-12T14:05:00.756Z,3.2
2023-01-12T14:06:15.663Z,3.3
2023-01-12T14:07:32.841Z,3.8
2023-01-12T14:08:51.513Z,3.3
2023-01-12T14:10:05.433Z,3.3
2023-01-12T14:11:20.316Z,3.2
2023-01-12T14:12:32.406Z,2.9
2023-01-12T14:13:44.658Z,3
2023-01-12T14:14:56.846Z,2.6
2023-01-12T14:16:19.547Z,3
2023-01-12T14:17:31.572Z,3
2023-01-12T14:18:43.768Z,3.1
2023-01-12T14:19:50.837Z,3.5
2023-01-12T14:20:57.501Z,3.3
2023-01-12T14:22:04.696Z,3.2
2023-01-12T14:23:14.306Z,3.3
2023-01-12T14:24:26.462Z,3.9
2023-01-12T14:25:33.678Z,3.3
2023-01-12T14:26:40.698Z,3
2023-01-12T14:27:47.413Z,3.7
2023-01-12T14:28:57.623Z,3.7
2023-01-12T14:30:04.805Z,3.6
2023-01-12T14:31:12.349Z,3.6
2023-01-12T14:32:24.570Z,3.1
2023-01-12T14:33:31.615Z,3.1
2023-01-12T14:34:38.263Z,3.6
2023-01-12T14:35:45.367Z,4.4
2023-01-12T14:36:52.507Z,4.4
2023-01-12T14:37:59.355Z,4.8
2023-01-12T14:39:06.246Z,4.8
2023-01-12T14:40:13.428Z,5.1
2023-01-12T14:41:23.165Z,4.7
2023-01-12T14:42:35.272Z,4.7
2023-01-12T14:43:47.529Z,4.9
2023-01-12T14:44:59.750Z,4.4
2023-01-12T14:46:22.245Z,4.1
2023-01-12T14:47:34.620Z,4.2
2023-01-12T14:48:39.466Z,4.5
2023-01-12T14:49:46.475Z,4.3
2023-01-12T14:50:53.564Z,4.8
2023-01-12T14:52:10.950Z,4.3
2023-01-12T14:53:28.738Z,5.2
2023-01-12T14:54:38.342Z,5.8
2023-01-12T14:55:45.455Z,5.7
2023-01-12T14:56:52.630Z,5.1
2023-01-12T14:58:04.881Z,6
2023-01-12T14:59:12.014Z,5.6
2023-01-12T15:00:19.253Z,6.8
2023-01-12T15:01:26.589Z,6.3
2023-01-12T15:02:33.373Z,6.7
2023-01-12T15:03:43.955Z,7.1
2023-01-12T15:04:47.137Z,7.5
2023-01-12T15:05:59.417Z,7
2023-01-12T15:07:06.402Z,6
2023-01-12T15:08:13.581Z,7.2
2023-01-12T15:09:25.790Z,7
2023-01-12T15:10:32.738Z,6.4
2023-01-12T15:11:39.949Z,7.2
2023-01-12T15:12:46.733Z,7.3
2023-01-12T15:13:56.921Z,7.4
2023-01-12T15:15:03.998Z,7.9
2023-01-12T15:16:16.494Z,7.7
2023-01-12T15:17:29.007Z,7.2
2023-01-12T15:18:41.044Z,6.7
2023-01-12T15:19:53.294Z,6.6
2023-01-12T15:21:05.610Z,7.2
2023-01-12T15:22:17.862Z,6.9
2023-01-12T15:23:29.938Z,6.7
2023-01-12T15:24:42.192Z,6.1
2023-01-12T15:25:54.561Z,6.4
2023-01-12T15:27:06.246Z,6.1
2023-01-12T15:28:08.705Z,5.8
2023-01-12T15:29:15.775Z,6.2
2023-01-12T15:30:22.956Z,5.9
2023-01-12T15:31:30.217Z,5
2023-01-12T15:32:46.612Z,6.2
2023-01-12T15:33:44.422Z,5.4
2023-01-12T15:34:51.452Z,5.1
2023-01-12T15:35:58.693Z,5.3
2023-01-12T15:37:05.715Z,5.1
2023-01-12T15:38:12.455Z,5.3
2023-01-12T15:39:19.532Z,5.2
2023-01-12T15:40:26.598Z,4.8
2023-01-12T15:41:33.752Z,5.2
2023-01-12T15:42:45.947Z,5.7
2023-01-12T15:43:53.099Z,5.3
2023-01-12T15:45:00.265Z,6.2
2023-01-12T15:46:07.516Z,5.2
2023-01-12T15:47:14.483Z,5.3
2023-01-12T15:48:21.715Z,5.1
2023-01-12T15:49:28.675Z,4.9
2023-01-12T15:50:35.867Z,5